Time;durP1;ratioP1;P1;durP2;ratioP2;P2;SDS_P1;SDS_P2;PMS_P1;PMS_P2;Temp;Humidity;BMP_temperature;BMP_pressure;BME280_temperature;BME280_humidity;BME280_pressure;Samples;Min_cycle;Max_cycle;Signal;HPM_P1;HPM_P2
2023/01/07 00:00:05;;;;;;;1999.90;999.90;;;11.80;1.00;;;;;;5042951;28;20172;-70
2023/01/07 00:02:31;;;;;;;1999.90;999.90;;;11.80;1.00;;;;;;5041862;28;20255;-70
2023/01/07 00:04:56;;;;;;;1999.90;999.90;;;12.00;1.00;;;;;;5041649;28;20451;-70
2023/01/07 00:07:22;;;;;;;1999.90;999.90;;;11.80;1.00;;;;;;5041491;28;20184;-70
2023/01/07 00:09:48;;;;;;;1999.90;999.90;;;11.80;1.00;;;;;;5042029;28;20186;-70
2023/01/07 00:12:13;;;;;;;1999.90;999.90;;;11.80;1.00;;;;;;5039166;28;20202;-70
2023/01/07 00:14:39;;;;;;;1999.90;999.90;;;11.80;1.00;;;;;;5035056;28;20204;-70
2023/01/07 00:17:04;;;;;;;1999.90;999.90;;;11.80;1.00;;;;;;5034283;28;20170;-70
2023/01/07 00:19:30;;;;;;;1999.90;999.90;;;11.70;1.00;;;;;;5035043;28;20231;-70
2023/01/07 00:21:55;;;;;;;1999.90;999.90;;;11.70;1.00;;;;;;5035703;28;20197;-70
2023/01/07 00:24:21;;;;;;;1999.90;999.90;;;11.70;1.00;;;;;;5034985;28;20192;-70
2023/01/07 00:26:46;;;;;;;1999.90;999.90;;;11.70;1.00;;;;;;5034055;28;20164;-70
2023/01/07 00:29:12;;;;;;;1999.90;999.90;;;11.70;1.00;;;;;;5033990;28;20692;-70
2023/01/07 00:31:39;;;;;;;1999.90;999.90;;;11.70;1.00;;;;;;5034266;28;20283;-70
2023/01/07 00:34:06;;;;;;;1999.90;999.90;;;11.60;1.00;;;;;;5033826;28;20215;-70
2023/01/07 00:36:38;;;;;;;1999.90;999.90;;;11.70;1.00;;;;;;5033884;28;20398;-70
2023/01/07 00:39:13;;;;;;;1999.90;999.90;;;11.70;1.00;;;;;;5033661;28;20799;-70
2023/01/07 00:41:39;;;;;;;1999.90;999.90;;;11.60;1.00;;;;;;5033763;28;20402;-70
2023/01/07 00:44:06;;;;;;;1999.90;999.90;;;11.70;1.00;;;;;;5033500;28;20854;-70
2023/01/07 00:46:32;;;;;;;1999.90;999.90;;;11.60;1.00;;;;;;5034025;28;20180;-70
2023/01/07 00:48:57;;;;;;;1999.90;999.90;;;11.60;1.00;;;;;;5034308;28;20403;-70
2023/01/07 00:51:24;;;;;;;1999.90;999.90;;;11.60;1.00;;;;;;5034636;28;20426;-70
2023/01/07 00:53:49;;;;;;;1999.90;999.90;;;11.60;1.00;;;;;;5034456;28;20204;-70
2023/01/07 00:56:19;;;;;;;1999.90;999.90;;;11.60;1.00;;;;;;5034296;28;20807;-70
2023/01/07 00:58:45;;;;;;;1999.90;999.90;;;11.50;1.00;;;;;;5034346;28;20177;-70
2023/01/07 01:01:12;;;;;;;1999.90;999.90;;;11.60;1.00;;;;;;5034200;28;20443;-70
2023/01/07 01:03:38;;;;;;;1999.90;999.90;;;11.50;1.00;;;;;;5033850;28;20419;-70
2023/01/07 01:06:15;;;;;;;1999.90;999.90;;;11.40;1.00;;;;;;5034422;28;20399;-70
2023/01/07 01:08:45;;;;;;;1999.90;999.90;;;11.50;1.00;;;;;;5034354;28;20398;-70
2023/01/07 01:11:12;;;;;;;1999.90;999.90;;;11.40;1.00;;;;;;5034111;28;20490;-70
2023/01/07 01:13:38;;;;;;;1999.90;999.90;;;11.30;1.00;;;;;;5034461;28;20425;-70
2023/01/07 01:16:13;;;;;;;1999.90;999.90;;;11.40;1.00;;;;;;5033962;28;20434;-70
2023/01/07 01:18:39;;;;;;;1999.90;999.90;;;11.30;1.00;;;;;;5034027;28;20460;-70
2023/01/07 01:21:07;;;;;;;1999.90;999.90;;;11.10;1.00;;;;;;5034087;28;20415;-70
2023/01/07 01:23:33;;;;;;;1999.90;999.90;;;11.00;1.00;;;;;;5035842;28;20805;-70
2023/01/07 01:26:03;;;;;;;1999.90;999.90;;;10.90;1.00;;;;;;5036936;28;20498;-70
2023/01/07 01:28:28;;;;;;;1999.90;999.90;;;10.90;3.60;;;;;;5036353;28;20401;-70
2023/01/07 01:30:54;;;;;;;1999.90;999.90;;;10.80;11.70;;;;;;5036841;28;20418;-70
2023/01/07 01:33:20;;;;;;;1999.90;999.90;;;10.60;35.70;;;;;;5036769;28;20183;-70
2023/01/07 01:35:45;;;;;;;1999.90;999.90;;;10.80;18.90;;;;;;5037171;28;20461;-70
2023/01/07 01:38:11;;;;;;;1999.90;999.90;;;10.90;30.20;;;;;;5037283;28;20171;-70
2023/01/07 01:40:37;;;;;;;1999.90;999.90;;;10.70;36.30;;;;;;5036359;28;20168;-70
2023/01/07 01:43:02;;;;;;;1999.90;999.90;;;10.70;47.80;;;;;;5036422;28;20172;-70
2023/01/07 01:45:29;;;;;;;1999.90;999.90;;;10.70;47.00;;;;;;5036308;28;20191;-70
2023/01/07 01:48:04;;;;;;;1999.90;999.90;;;10.90;46.20;;;;;;5034876;28;20168;-69
2023/01/07 01:50:42;;;;;;;1999.90;999.90;;;10.70;46.50;;;;;;5037259;28;20402;-69
2023/01/07 01:53:17;;;;;;;1999.90;999.90;;;10.70;79.20;;;;;;5037711;28;20496;-69
2023/01/07 01:55:47;;;;;;;1999.90;999.90;;;10.70;54.80;;;;;;5035400;28;20457;-70
2023/01/07 01:58:18;;;;;;;1999.90;999.90;;;10.60;45.80;;;;;;5037611;28;20430;-70
2023/01/07 02:00:43;;;;;;;1999.90;999.90;;;10.60;54.20;;;;;;5042857;28;20402;-70
2023/01/07 02:03:14;;;;;;;1999.90;999.90;;;10.80;96.20;;;;;;5042673;28;20483;-69
2023/01/07 02:05:41;;;;;;;1999.90;999.90;;;10.70;78.10;;;;;;5041857;28;20172;-70
2023/01/07 02:08:07;;;;;;;1999.90;999.90;;;10.80;69.70;;;;;;5040228;28;20449;-69
2023/01/07 02:10:34;;;;;;;1999.90;999.90;;;10.90;54.50;;;;;;5038128;28;20942;-69
2023/01/07 02:13:02;;;;;;;1999.90;999.90;;;11.00;36.20;;;;;;5039449;28;20406;-69
2023/01/07 02:15:30;;;;;;;1999.90;999.90;;;11.10;23.30;;;;;;5040323;28;20998;-69
2023/01/07 02:18:23;;;;;;;1999.90;999.90;;;11.20;19.50;;;;;;5039577;28;20528;-69
2023/01/07 02:21:10;;;;;;;1999.90;999.90;;;11.30;8.20;;;;;;5040146;28;20402;-70
2023/01/07 02:24:02;;;;;;;1999.90;999.90;;;11.20;1.00;;;;;;5041359;28;20450;-70
2023/01/07 02:26:49;;;;;;;1999.90;999.90;;;11.20;1.00;;;;;;5040562;28;20438;-70
2023/01/07 02:29:39;;;;;;;1999.90;999.90;;;11.10;1.00;;;;;;5040138;28;20402;-70
2023/01/07 02:32:23;;;;;;;1999.90;999.90;;;11.00;1.00;;;;;;5042417;28;20410;-70
2023/01/07 02:35:14;;;;;;;1999.90;999.90;;;10.90;1.00;;;;;;5042113;28;20453;-69
2023/01/07 02:38:03;;;;;;;1999.90;999.90;;;10.70;1.00;;;;;;5023233;28;20441;-69
2023/01/07 02:40:53;;;;;;;1999.90;999.90;;;10.60;1.00;;;;;;5043052;28;20398;-70
2023/01/07 02:43:43;;;;;;;1999.90;999.90;;;10.30;1.00;;;;;;5042035;28;20411;-70
2023/01/07 02:46:18;;;;;;;1999.90;999.90;;;10.40;1.00;;;;;;5040776;28;20410;-70
2023/01/07 02:48:44;;;;;;;1999.90;999.90;;;10.20;1.00;;;;;;5041335;28;20405;-70
2023/01/07 02:51:10;;;;;;;1999.90;999.90;;;10.10;11.40;;;;;;5040595;28;20493;-69
2023/01/07 02:53:37;;;;;;;1999.90;999.90;;;10.20;25.40;;;;;;5041639;28;20465;-69
2023/01/07 02:56:16;;;;;;;1999.90;999.90;;;10.20;40.00;;;;;;5041735;28;20486;-69
2023/01/07 02:58:51;;;;;;;1999.90;999.90;;;10.00;59.40;;;;;;5041385;28;20432;-70
2023/01/07 03:01:54;;;;;;;1999.90;999.90;;;10.00;59.80;;;;;;5040055;28;20405;-70
2023/01/07 03:04:39;;;;;;;1999.90;999.90;;;10.00;74.50;;;;;;5039245;28;20438;-70
2023/01/07 03:07:21;;;;;;;1999.90;999.90;;;9.90;78.80;;;;;;5040412;28;20392;-70
2023/01/07 03:10:01;;;;;;;1999.90;999.90;;;9.90;92.00;;;;;;5041647;28;20458;-70
2023/01/07 03:12:47;;;;;;;1999.90;999.90;;;9.80;97.10;;;;;;5040563;28;20418;-70
2023/01/07 03:15:35;;;;;;;1999.90;999.90;;;9.70;98.70;;;;;;5041078;28;20466;-69
2023/01/07 03:18:03;;;;;;;1999.90;999.90;;;9.80;99.90;;;;;;5034243;28;20912;-69
2023/01/07 03:20:32;;;;;;;1999.90;999.90;;;9.70;99.90;;;;;;5034297;28;20767;-69
2023/01/07 03:22:58;;;;;;;1999.90;999.90;;;9.90;99.90;;;;;;5034836;28;20412;-69
2023/01/07 03:25:27;;;;;;;1999.90;999.90;;;9.80;99.90;;;;;;5040854;28;20430;-70
2023/01/07 03:27:54;;;;;;;1999.90;999.90;;;9.90;99.90;;;;;;5039827;28;20178;-69
2023/01/07 03:30:22;;;;;;;1999.90;999.90;;;10.10;99.90;;;;;;5039571;28;20413;-69
2023/01/07 03:32:58;;;;;;;1999.90;999.90;;;10.10;99.90;;;;;;5039152;28;20405;-69
2023/01/07 03:35:25;;;;;;;1999.90;999.90;;;10.00;99.90;;;;;;5040190;28;20480;-69
2023/01/07 03:37:52;;;;;;;1999.90;999.90;;;10.10;99.90;;;;;;5041140;28;20432;-70
2023/01/07 03:40:19;;;;;;;1999.90;999.90;;;9.90;99.90;;;;;;5029328;28;20791;-69
2023/01/07 03:42:47;;;;;;;1999.90;999.90;;;10.00;99.90;;;;;;5013864;28;20412;-70
2023/01/07 03:45:18;;;;;;;1999.90;999.90;;;10.00;99.90;;;;;;5013511;28;20446;-70
2023/01/07 03:47:49;;;;;;;1999.90;999.90;;;10.00;99.90;;;;;;5013486;28;20409;-70
2023/01/07 03:50:15;;;;;;;1999.90;999.90;;;9.90;99.90;;;;;;5013412;28;20439;-70
2023/01/07 03:52:41;;;;;;;1999.90;999.90;;;10.00;99.90;;;;;;5013495;28;20465;-70
2023/01/07 03:55:08;;;;;;;1999.90;999.90;;;10.10;99.90;;;;;;5013242;28;20467;-70
2023/01/07 03:57:34;;;;;;;1999.90;999.90;;;10.20;99.90;;;;;;5013468;28;20491;-70
2023/01/07 04:00:00;;;;;;;1999.90;999.90;;;10.20;99.90;;;;;;5013315;28;21019;-70
2023/01/07 04:02:26;;;;;;;1999.90;999.90;;;10.40;99.90;;;;;;5013231;28;20635;-70
2023/01/07 04:04:52;;;;;;;1999.90;999.90;;;10.50;99.90;;;;;;5013291;28;20427;-70
2023/01/07 04:07:17;;;;;;;1999.90;999.90;;;10.50;99.90;;;;;;5013190;28;20406;-70
2023/01/07 04:09:45;;;;;;;1999.90;999.90;;;10.70;99.90;;;;;;5014284;28;20415;-70
2023/01/07 04:12:12;;;;;;;1999.90;999.90;;;10.60;99.90;;;;;;5016449;28;20168;-70
2023/01/07 04:14:38;;;;;;;1999.90;999.90;;;10.80;99.90;;;;;;5016366;28;20458;-70
2023/01/07 04:17:04;;;;;;;1999.90;999.90;;;10.80;94.80;;;;;;5016917;28;20470;-69
2023/01/07 04:19:29;;;;;;;1999.90;999.90;;;10.70;88.10;;;;;;5012993;28;20176;-70
2023/01/07 04:21:55;;;;;;;1999.90;999.90;;;10.90;79.60;;;;;;5013229;28;20180;-69
2023/01/07 04:24:21;;;;;;;1999.90;999.90;;;11.10;56.20;;;;;;5013063;28;20195;-69
2023/01/07 04:26:46;;;;;;;1999.90;999.90;;;11.10;44.70;;;;;;5013087;28;20172;-70
2023/01/07 04:29:12;;;;;;;1999.90;999.90;;;11.10;30.90;;;;;;5013209;28;20176;-70
2023/01/07 04:31:37;;;;;;;1999.90;999.90;;;11.20;17.10;;;;;;5013074;28;20169;-69
2023/01/07 04:34:03;;;;;;;1999.90;999.90;;;11.30;1.00;;;;;;5012982;28;20212;-70
2023/01/07 04:36:28;;;;;;;1999.90;999.90;;;11.30;1.00;;;;;;5012906;28;20208;-70
2023/01/07 04:38:54;;;;;;;1999.90;999.90;;;11.30;1.00;;;;;;5012731;28;20169;-69
2023/01/07 04:41:20;;;;;;;1999.90;999.90;;;11.40;1.00;;;;;;5013107;28;20172;-70
2023/01/07 04:43:45;;;;;;;1999.90;999.90;;;11.40;1.00;;;;;;5012813;28;20185;-70
2023/01/07 04:46:11;;;;;;;1999.90;999.90;;;11.40;1.00;;;;;;5012788;28;20188;-70
2023/01/07 04:48:37;;;;;;;1999.90;999.90;;;11.50;1.00;;;;;;5012726;28;20169;-69
2023/01/07 04:51:02;;;;;;;1999.90;999.90;;;11.50;1.00;;;;;;5012669;28;20165;-69
2023/01/07 04:53:28;;;;;;;1999.90;999.90;;;11.50;1.00;;;;;;5012666;28;20185;-70
2023/01/07 04:55:54;;;;;;;1999.90;999.90;;;11.50;1.00;;;;;;5012641;28;20212;-69
2023/01/07 04:58:19;;;;;;;1999.90;999.90;;;11.60;1.00;;;;;;5012548;28;20172;-69
2023/01/07 05:00:46;;;;;;;1999.90;999.90;;;11.60;1.00;;;;;;5015760;28;20184;-69
2023/01/07 05:03:11;;;;;;;1999.90;999.90;;;11.60;1.00;;;;;;5019079;28;20165;-70
2023/01/07 05:05:37;;;;;;;1999.90;999.90;;;11.60;1.00;;;;;;5019330;28;20797;-69
2023/01/07 05:08:03;;;;;;;1999.90;999.90;;;11.50;1.00;;;;;;5012407;28;20212;-70
2023/01/07 05:10:29;;;;;;;1999.90;999.90;;;11.50;1.00;;;;;;5019170;28;20659;-70
2023/01/07 05:12:54;;;;;;;1999.90;999.90;;;11.50;99.90;;;;;;5020792;28;20408;-70
2023/01/07 05:15:20;;;;;;;1999.90;999.90;;;11.50;99.90;;;;;;5019956;28;20450;-70
2023/01/07 05:17:45;;;;;;;1999.90;999.90;;;11.50;99.90;;;;;;5019618;28;20161;-70
2023/01/07 05:20:12;;;;;;;1999.90;999.90;;;11.50;99.90;;;;;;5017848;28;20172;-70
2023/01/07 05:22:38;;;;;;;1999.90;999.90;;;11.50;99.90;;;;;;5014080;28;20161;-70
2023/01/07 05:25:04;;;;;;;1999.90;999.90;;;11.50;99.90;;;;;;5012561;28;20485;-69
2023/01/07 05:27:29;;;;;;;1999.90;999.90;;;11.30;99.90;;;;;;5015377;28;20581;-70
2023/01/07 05:29:55;;;;;;;1999.90;999.90;;;11.30;99.90;;;;;;5016319;28;20415;-70
2023/01/07 05:32:21;;;;;;;1999.90;999.90;;;11.20;1.00;;;;;;5016449;28;20623;-69
2023/01/07 05:34:46;;;;;;;1999.90;999.90;;;11.20;1.00;;;;;;5016122;28;20200;-69
2023/01/07 05:37:12;;;;;;;1999.90;999.90;;;11.20;1.00;;;;;;5016113;28;20275;-69
2023/01/07 05:39:37;;;;;;;1999.90;999.90;;;11.20;1.00;;;;;;5018400;28;20175;-70
2023/01/07 05:42:03;;;;;;;1999.90;999.90;;;11.20;1.00;;;;;;5018986;28;20165;-70
2023/01/07 05:44:29;;;;;;;1999.90;999.90;;;11.10;1.00;;;;;;5021394;28;20250;-70
2023/01/07 05:46:54;;;;;;;1999.90;999.90;;;11.20;1.00;;;;;;5021805;28;20244;-70
2023/01/07 05:49:20;;;;;;;1999.90;999.90;;;11.10;1.00;;;;;;5020126;28;20631;-70
2023/01/07 05:51:45;;;;;;;1999.90;999.90;;;11.10;1.00;;;;;;5020111;28;20179;-70
2023/01/07 05:54:11;;;;;;;1999.90;999.90;;;11.00;1.00;;;;;;5020701;28;20759;-70
2023/01/07 05:56:36;;;;;;;1999.90;999.90;;;11.10;1.00;;;;;;5021128;28;20212;-70
2023/01/07 05:59:02;;;;;;;1999.90;999.90;;;10.90;1.00;;;;;;5021470;28;20647;-70
2023/01/07 06:01:28;;;;;;;1999.90;999.90;;;10.90;1.00;;;;;;5021532;28;20176;-70
2023/01/07 06:03:53;;;;;;;1999.90;999.90;;;10.90;1.00;;;;;;5019982;28;20192;-70
2023/01/07 06:06:19;;;;;;;1999.90;999.90;;;10.90;1.00;;;;;;5019276;28;20191;-70
2023/01/07 06:08:44;;;;;;;1999.90;999.90;;;10.90;1.00;;;;;;5019840;28;20186;-70
2023/01/07 06:11:10;;;;;;;1999.90;999.90;;;11.00;1.00;;;;;;5020339;28;20219;-70
2023/01/07 06:13:36;;;;;;;1999.90;999.90;;;10.90;1.00;;;;;;5019271;28;20185;-70
2023/01/07 06:16:04;;;;;;;1999.90;999.90;;;10.90;1.00;;;;;;5020389;28;20437;-70
2023/01/07 06:18:30;;;;;;;1999.90;999.90;;;10.90;1.00;;;;;;5020442;28;20183;-70
2023/01/07 06:20:55;;;;;;;1999.90;999.90;;;10.90;1.00;;;;;;5020746;28;20419;-70
2023/01/07 06:23:21;;;;;;;1999.90;999.90;;;10.80;1.00;;;;;;5020707;28;20466;-69
2023/01/07 06:25:47;;;;;;;1999.90;999.90;;;10.90;1.00;;;;;;5020608;28;20177;-69
2023/01/07 06:28:12;;;;;;;1999.90;999.90;;;10.90;1.00;;;;;;5020559;28;20399;-70
2023/01/07 06:30:38;;;;;;;1999.90;999.90;;;11.00;1.00;;;;;;5021857;28;20659;-70
2023/01/07 06:33:04;;;;;;;1999.90;999.90;;;10.90;1.00;;;;;;5021910;28;20662;-70
2023/01/07 06:35:31;;;;;;;1999.90;999.90;;;11.10;1.00;;;;;;5019226;28;20236;-70
2023/01/07 06:37:56;;;;;;;1999.90;999.90;;;10.90;1.00;;;;;;5019147;28;20416;-70
2023/01/07 06:40:22;;;;;;;1999.90;999.90;;;11.10;1.00;;;;;;5019680;28;20410;-70
2023/01/07 06:42:48;;;;;;;1999.90;999.90;;;10.90;1.00;;;;;;5019146;28;20173;-70
2023/01/07 06:45:14;;;;;;;1999.90;999.90;;;10.90;1.00;;;;;;5019859;28;20811;-70
2023/01/07 06:47:39;;;;;;;1999.90;999.90;;;11.10;1.00;;;;;;5020535;28;20184;-70
2023/01/07 06:50:06;;;;;;;1999.90;999.90;;;10.90;1.00;;;;;;5019402;28;20177;-70
2023/01/07 06:52:31;;;;;;;1999.90;999.90;;;10.90;1.00;;;;;;5019551;28;20183;-70
2023/01/07 06:54:57;;;;;;;1999.90;999.90;;;10.90;1.00;;;;;;5018884;28;20991;-70
2023/01/07 06:57:23;;;;;;;1999.90;999.90;;;10.80;1.00;;;;;;5019457;28;20655;-70
2023/01/07 06:59:48;;;;;;;1999.90;999.90;;;10.90;1.00;;;;;;5019745;28;20172;-70
2023/01/07 07:02:22;;;;;;;1999.90;999.90;;;10.80;1.00;;;;;;5019287;28;20180;-70
2023/01/07 07:04:48;;;;;;;1999.90;999.90;;;10.80;1.00;;;;;;5019639;28;20714;-70
2023/01/07 07:07:14;;;;;;;1999.90;999.90;;;10.80;1.00;;;;;;5019397;28;20415;-70
2023/01/07 07:09:40;;;;;;;1999.90;999.90;;;10.80;1.00;;;;;;5018840;28;20183;-70
2023/01/07 07:12:06;;;;;;;1999.90;999.90;;;10.80;1.00;;;;;;5019341;28;20169;-70
2023/01/07 07:14:32;;;;;;;1999.90;999.90;;;10.80;1.00;;;;;;5018462;28;20208;-70
2023/01/07 07:16:57;;;;;;;1999.90;999.90;;;10.90;1.00;;;;;;5018254;28;20422;-70
2023/01/07 07:19:23;;;;;;;1999.90;999.90;;;10.90;1.00;;;;;;5018328;28;20647;-70
2023/01/07 07:21:48;;;;;;;1999.90;999.90;;;11.00;99.90;;;;;;5017878;28;20188;-70
2023/01/07 07:24:14;;;;;;;1999.90;999.90;;;11.00;99.90;;;;;;5017290;28;20198;-70
2023/01/07 07:26:40;;;;;;;1999.90;999.90;;;10.90;99.90;;;;;;5017234;28;20246;-70
2023/01/07 07:29:05;;;;;;;1999.90;999.90;;;10.90;99.90;;;;;;5017206;28;20170;-70
2023/01/07 07:31:31;;;;;;;1999.90;999.90;;;11.00;99.90;;;;;;5016392;28;20267;-70
2023/01/07 07:33:56;;;;;;;1999.90;999.90;;;11.10;99.90;;;;;;5015574;28;20275;-70
2023/01/07 07:36:22;;;;;;;1999.90;999.90;;;11.10;99.90;;;;;;5015451;28;20685;-70
2023/01/07 07:38:47;;;;;;;1999.90;999.90;;;10.90;99.90;;;;;;5015610;28;20522;-70
2023/01/07 07:41:13;;;;;;;1999.90;999.90;;;11.00;99.90;;;;;;5014893;28;20597;-69
2023/01/07 07:43:39;;;;;;;1999.90;999.90;;;10.90;99.90;;;;;;5014451;28;20195;-69
2023/01/07 07:46:04;;;;;;;1999.90;999.90;;;11.00;99.90;;;;;;5014149;28;20173;-69
2023/01/07 07:48:30;;;;;;;1999.90;999.90;;;11.00;99.90;;;;;;5014511;28;20225;-70
2023/01/07 07:50:56;;;;;;;1999.90;999.90;;;11.00;99.90;;;;;;5015363;28;20165;-70
2023/01/07 07:53:21;;;;;;;1999.90;999.90;;;11.20;99.90;;;;;;5015947;28;20176;-70
2023/01/07 07:55:47;;;;;;;1999.90;999.90;;;11.20;99.90;;;;;;5016191;28;20705;-70
2023/01/07 07:58:13;;;;;;;1999.90;999.90;;;11.00;99.90;;;;;;5016558;28;20213;-70
2023/01/07 08:00:39;;;;;;;1999.90;999.90;;;10.90;99.90;;;;;;5016932;28;20196;-70
2023/01/07 08:03:05;;;;;;;1999.90;999.90;;;10.90;99.90;;;;;;5017133;28;20808;-70
2023/01/07 08:05:31;;;;;;;1999.90;999.90;;;10.90;99.90;;;;;;5017226;28;20944;-70
2023/01/07 08:07:57;;;;;;;1999.90;999.90;;;10.80;1.00;;;;;;5019720;28;20498;-69
2023/01/07 08:10:24;;;;;;;1999.90;999.90;;;10.90;1.00;;;;;;5018743;28;20917;-69
2023/01/07 08:12:50;;;;;;;1999.90;999.90;;;10.80;1.00;;;;;;5016219;28;20445;-69
2023/01/07 08:15:16;;;;;;;1999.90;999.90;;;10.80;1.00;;;;;;5016198;28;20458;-69
2023/01/07 08:17:42;;;;;;;1999.90;999.90;;;10.80;1.00;;;;;;5016759;28;20263;-70
2023/01/07 08:20:08;;;;;;;1999.90;999.90;;;10.80;1.00;;;;;;5016693;28;20173;-70
2023/01/07 08:22:34;;;;;;;1999.90;999.90;;;10.90;1.00;;;;;;5016045;28;21040;-69
2023/01/07 08:25:00;;;;;;;1999.90;999.90;;;10.90;1.00;;;;;;5016921;28;20457;-69
2023/01/07 08:27:26;;;;;;;1999.90;999.90;;;10.80;1.00;;;;;;5016860;28;20279;-69
2023/01/07 08:29:53;;;;;;;1999.90;999.90;;;10.80;1.00;;;;;;5016440;28;20411;-69
2023/01/07 08:32:19;;;;;;;1999.90;999.90;;;10.90;1.00;;;;;;5016317;28;20446;-69
2023/01/07 08:34:44;;;;;;;1999.90;999.90;;;11.00;1.00;;;;;;5016161;28;20879;-69
2023/01/07 08:37:10;;;;;;;1999.90;999.90;;;10.90;1.00;;;;;;5021339;28;20207;-69
2023/01/07 08:39:36;;;;;;;1999.90;999.90;;;10.90;1.00;;;;;;5021435;28;20186;-69
2023/01/07 08:42:01;;;;;;;1999.90;999.90;;;10.90;1.00;;;;;;5021153;28;20172;-69
2023/01/07 08:44:27;;;;;;;1999.90;999.90;;;10.90;1.00;;;;;;5020287;28;20521;-69
2023/01/07 08:46:53;;;;;;;1999.90;999.90;;;10.90;1.00;;;;;;5020835;28;20177;-69
2023/01/07 08:49:18;;;;;;;1999.90;999.90;;;11.00;1.00;;;;;;5020360;28;20185;-69
2023/01/07 08:51:44;;;;;;;1999.90;999.90;;;11.00;1.00;;;;;;5019366;28;20424;-69
2023/01/07 08:54:10;;;;;;;1999.90;999.90;;;10.90;1.00;;;;;;5019747;28;20754;-69
2023/01/07 08:56:35;;;;;;;1999.90;999.90;;;11.10;1.00;;;;;;5020502;28;20180;-69
2023/01/07 08:59:01;;;;;;;1999.90;999.90;;;11.20;99.90;;;;;;5021579;28;20593;-69
2023/01/07 09:01:26;;;;;;;1999.90;999.90;;;11.10;99.90;;;;;;5014508;28;20187;-69
2023/01/07 09:03:52;;;;;;;1999.90;999.90;;;11.20;99.90;;;;;;5014924;28;20543;-69
2023/01/07 09:06:18;;;;;;;1999.90;999.90;;;11.20;99.90;;;;;;5015328;28;20173;-69
2023/01/07 09:08:43;;;;;;;1999.90;999.90;;;11.40;99.90;;;;;;5012295;28;20168;-70
2023/01/07 09:11:09;;;;;;;1999.90;999.90;;;11.30;99.90;;;;;;5015817;28;20168;-70
2023/01/07 09:13:34;;;;;;;1999.90;999.90;;;11.30;99.90;;;;;;5015981;28;20219;-70
2023/01/07 09:16:00;;;;;;;1999.90;999.90;;;11.40;99.90;;;;;;5015560;28;20369;-70
2023/01/07 09:18:26;;;;;;;1999.90;999.90;;;11.40;99.90;;;;;;5015641;28;20219;-70
2023/01/07 09:20:51;;;;;;;1999.90;999.90;;;11.50;99.90;;;;;;5014726;28;20177;-70
2023/01/07 09:23:17;;;;;;;1999.90;999.90;;;11.40;99.90;;;;;;5014102;28;20172;-70
2023/01/07 09:25:42;;;;;;;1999.90;999.90;;;11.60;99.90;;;;;;5015424;28;20183;-70
2023/01/07 09:28:08;;;;;;;1999.90;999.90;;;11.60;99.90;;;;;;5015966;28;20183;-70
2023/01/07 09:30:34;;;;;;;1999.90;999.90;;;11.60;63.70;;;;;;5015540;28;20175;-70
2023/01/07 09:32:59;;;;;;;1999.90;999.90;;;11.60;1.00;;;;;;5013249;28;20252;-69
2023/01/07 09:35:25;;;;;;;1999.90;999.90;;;11.80;11.50;;;;;;5012265;28;21009;-70
2023/01/07 09:37:50;;;;;;;1999.90;999.90;;;11.60;14.10;;;;;;5013188;28;20169;-69
2023/01/07 09:40:26;;;;;;;1999.90;999.90;;;11.60;1.00;;;;;;5013261;28;20216;-69
2023/01/07 09:43:04;;;;;;;1999.90;999.90;;;11.70;1.00;;;;;;5012997;28;20165;-69
2023/01/07 09:45:44;;;;;;;1999.90;999.90;;;11.70;1.00;;;;;;5012630;28;20453;-70
2023/01/07 09:48:38;;;;;;;1999.90;999.90;;;11.80;99.90;;;;;;5013101;28;21017;-70
2023/01/07 09:51:27;;;;;;;1999.90;999.90;;;11.80;99.90;;;;;;5013611;28;20447;-70
2023/01/07 09:53:55;;;;;;;1999.90;999.90;;;11.80;99.90;;;;;;5013366;28;20427;-70
2023/01/07 09:56:33;;;;;;;1999.90;999.90;;;11.90;99.90;;;;;;5014173;28;20836;-70
2023/01/07 09:59:00;;;;;;;1999.90;999.90;;;11.90;99.90;;;;;;5013302;28;20494;-70
2023/01/07 10:01:32;;;;;;;1999.90;999.90;;;12.00;66.70;;;;;;5014500;28;20415;-70
2023/01/07 10:04:30;;;;;;;1999.90;999.90;;;12.10;99.90;;;;;;5014436;28;20424;-69
2023/01/07 10:07:20;;;;;;;1999.90;999.90;;;12.00;99.90;;;;;;4995810;28;20514;-70
2023/01/07 10:10:23;;;;;;;1999.90;999.90;;;12.00;99.90;;;;;;5011469;28;20399;-70
2023/01/07 10:13:04;;;;;;;1999.90;999.90;;;12.00;99.90;;;;;;5013194;28;20438;-70
2023/01/07 10:16:05;;;;;;;1999.90;999.90;;;12.10;24.80;;;;;;5014835;28;20454;-70
2023/01/07 10:19:03;;;;;;;1999.90;999.90;;;12.10;51.60;;;;;;5014787;28;20797;-70
2023/01/07 10:21:43;;;;;;;1999.90;999.90;;;12.20;1.00;;;;;;4979026;28;20470;-70
2023/01/07 10:24:21;;;;;;;1999.90;999.90;;;12.20;99.90;;;;;;5015482;28;20427;-70
2023/01/07 10:26:50;;;;;;;1999.90;999.90;;;12.20;1.00;;;;;;5015264;28;20817;-70
2023/01/07 10:29:35;;;;;;;1999.90;999.90;;;12.10;99.90;;;;;;5014572;28;20957;-70
2023/01/07 10:32:13;;;;;;;1999.90;999.90;;;12.10;1.00;;;;;;5014865;28;20411;-70
2023/01/07 10:34:44;;;;;;;1999.90;999.90;;;12.00;99.90;;;;;;5014930;28;20467;-70
2023/01/07 10:37:31;;;;;;;1999.90;999.90;;;11.90;51.30;;;;;;5014523;28;20418;-70
2023/01/07 10:39:59;;;;;;;1999.90;999.90;;;11.90;1.00;;;;;;5015141;28;20415;-70
2023/01/07 10:42:36;;;;;;;1999.90;999.90;;;11.80;99.90;;;;;;5015393;28;20406;-70
2023/01/07 10:45:23;;;;;;;1999.90;999.90;;;11.80;18.50;;;;;;5014146;28;20424;-70
2023/01/07 10:48:10;;;;;;;1999.90;999.90;;;11.90;99.90;;;;;;5014856;28;20458;-70
2023/01/07 10:50:42;;;;;;;1999.90;999.90;;;11.90;1.00;;;;;;5014120;28;20404;-70
2023/01/07 10:53:44;;;;;;;1999.90;999.90;;;11.90;99.90;;;;;;5014514;28;20934;-70
2023/01/07 10:56:37;;;;;;;1999.90;999.90;;;12.00;99.90;;;;;;5014235;28;20732;-69
2023/01/07 10:59:03;;;;;;;1999.90;999.90;;;11.90;27.30;;;;;;5013891;28;20400;-69
2023/01/07 11:01:34;;;;;;;1999.90;999.90;;;11.90;99.90;;;;;;5014339;28;20404;-70
2023/01/07 11:04:00;;;;;;;1999.90;999.90;;;12.00;99.90;;;;;;5014201;28;20932;-70
2023/01/07 11:06:43;;;;;;;1999.90;999.90;;;12.00;1.00;;;;;;5014123;28;20456;-70
2023/01/07 11:09:31;;;;;;;1999.90;999.90;;;12.00;1.00;;;;;;5013937;28;20479;-70
2023/01/07 11:12:03;;;;;;;1999.90;999.90;;;12.10;99.90;;;;;;5014114;28;20400;-70
2023/01/07 11:14:33;;;;;;;1999.90;999.90;;;12.10;99.90;;;;;;5014365;28;20451;-70
2023/01/07 11:17:18;;;;;;;1999.90;999.90;;;12.10;99.90;;;;;;5018842;28;20408;-70
2023/01/07 11:19:53;;;;;;;1999.90;999.90;;;12.20;1.00;;;;;;5018563;28;20412;-70
2023/01/07 11:22:24;;;;;;;1999.90;999.90;;;12.10;1.00;;;;;;5017071;28;20408;-70
2023/01/07 11:24:50;;;;;;;1999.90;999.90;;;12.10;1.00;;;;;;5015738;28;20435;-70
2023/01/07 11:27:17;;;;;;;1999.90;999.90;;;12.10;1.00;;;;;;5016078;28;20778;-69
2023/01/07 11:29:44;;;;;;;1999.90;999.90;;;12.10;1.00;;;;;;5016607;28;20601;-70
2023/01/07 11:32:24;;;;;;;1999.90;999.90;;;12.20;1.00;;;;;;5017866;28;20466;-70
2023/01/07 11:34:55;;;;;;;1999.90;999.90;;;12.20;1.00;;;;;;5018149;28;20455;-70
2023/01/07 11:37:38;;;;;;;1999.90;999.90;;;12.30;99.90;;;;;;5017797;28;20937;-70
2023/01/07 11:40:13;;;;;;;1999.90;999.90;;;13.10;1.00;;;;;;5017310;28;20439;-70
2023/01/07 11:42:57;;;;;;;1999.90;999.90;;;13.60;99.90;;;;;;5017033;28;20965;-70
2023/01/07 11:45:45;;;;;;;1999.90;999.90;;;13.90;99.90;;;;;;5016441;28;20422;-70
2023/01/07 11:48:27;;;;;;;1999.90;999.90;;;14.10;99.90;;;;;;5016164;28;20406;-70
2023/01/07 11:50:52;;;;;;;1999.90;999.90;;;14.40;99.90;;;;;;5015769;28;20923;-70
2023/01/07 11:53:18;;;;;;;1999.90;999.90;;;14.70;99.90;;;;;;5016000;28;20408;-70
2023/01/07 11:56:05;;;;;;;1999.90;999.90;;;14.90;1.00;;;;;;5015256;28;20197;-70
2023/01/07 11:58:35;;;;;;;1999.90;999.90;;;15.10;99.90;;;;;;5015813;28;20272;-70
2023/01/07 12:01:22;;;;;;;1999.90;999.90;;;15.10;99.90;;;;;;5022143;28;20415;-70
2023/01/07 12:03:50;;;;;;;1999.90;999.90;;;15.30;99.90;;;;;;5025342;28;20441;-70
2023/01/07 12:06:37;;;;;;;1999.90;999.90;;;15.50;99.90;;;;;;5026550;28;20412;-70
2023/01/07 12:09:02;;;;;;;1999.90;999.90;;;15.30;99.90;;;;;;5016775;28;20927;-70
2023/01/07 12:11:34;;;;;;;1999.90;999.90;;;14.90;1.00;;;;;;5015703;28;20485;-70
2023/01/07 12:14:17;;;;;;;1999.90;999.90;;;15.00;99.90;;;;;;5015314;28;20203;-70
2023/01/07 12:16:44;;;;;;;1999.90;999.90;;;15.30;99.90;;;;;;5015087;28;20972;-70